createdAt,value
2018-05-13T00:02:03.396Z,69
2018-05-13T00:07:32.637Z,69
2018-05-13T00:13:02.556Z,69
2018-05-13T00:18:31.747Z,69
2018-05-13T00:24:02.210Z,70
2018-05-13T00:29:30.836Z,70
2018-05-13T00:35:00.976Z,70
2018-05-13T00:40:30.108Z,70
2018-05-13T00:45:59.129Z,70
2018-05-13T00:51:28.267Z,71
2018-05-13T00:56:57.300Z,71
2018-05-13T01:02:26.523Z,71
2018-05-13T01:07:55.767Z,71
2018-05-13T01:13:25.526Z,71
2018-05-13T01:18:54.579Z,72
2018-05-13T01:24:24.658Z,72
2018-05-13T01:29:54.019Z,72
2018-05-13T01:35:22.758Z,72
2018-05-13T01:40:51.928Z,72
2018-05-13T01:46:20.901Z,72
2018-05-13T01:51:49.950Z,72
2018-05-13T01:57:20.213Z,73
2018-05-13T02:02:49.569Z,73
2018-05-13T02:08:18.129Z,73
2018-05-13T02:13:47.154Z,73
2018-05-13T02:19:16.193Z,73
2018-05-13T02:24:46.286Z,73
2018-05-13T02:30:16.301Z,73
2018-05-13T02:35:45.339Z,73
2018-05-13T02:41:15.365Z,74
2018-05-13T02:46:45.430Z,74
2018-05-13T02:52:15.395Z,74
2018-05-13T02:57:45.457Z,74
2018-05-13T03:03:14.669Z,74
2018-05-13T03:08:44.598Z,74
2018-05-13T03:14:13.536Z,74
2018-05-13T03:19:42.559Z,75
2018-05-13T03:25:11.633Z,75
2018-05-13T03:30:41.651Z,75
2018-05-13T03:36:11.691Z,75
2018-05-13T03:41:41.742Z,75
2018-05-13T03:47:12.097Z,75
2018-05-13T03:52:40.796Z,75
2018-05-13T03:58:10.814Z,75
2018-05-13T04:03:39.894Z,75
2018-05-13T04:09:09.814Z,75
2018-05-13T04:14:39.841Z,76
2018-05-13T04:20:09.387Z,76
2018-05-13T04:25:38.013Z,76
2018-05-13T04:31:06.902Z,76
2018-05-13T04:36:35.994Z,76
2018-05-13T04:42:04.983Z,76
2018-05-13T04:47:34.000Z,76
2018-05-13T04:53:04.168Z,76
2018-05-13T04:58:33.180Z,76
2018-05-13T05:04:03.203Z,76
2018-05-13T05:09:32.273Z,76
2018-05-13T05:15:01.341Z,77
2018-05-13T05:20:30.498Z,77
2018-05-13T05:25:59.550Z,77
2018-05-13T05:31:28.634Z,77
2018-05-13T05:36:57.723Z,77
2018-05-13T05:42:27.766Z,77
2018-05-13T05:47:56.868Z,77
2018-05-13T05:53:27.035Z,77
2018-05-13T05:58:57.083Z,77
2018-05-13T06:04:26.217Z,77
2018-05-13T06:09:55.421Z,77
2018-05-13T06:15:24.452Z,77
2018-05-13T06:26:24.765Z,77
2018-05-13T06:31:54.947Z,78
2018-05-13T06:37:25.104Z,77
2018-05-13T06:42:55.387Z,77
2018-05-13T06:48:25.492Z,77
2018-05-13T06:53:55.820Z,77
2018-05-13T06:59:26.175Z,77
2018-05-13T07:04:56.905Z,77
2018-05-13T07:10:25.804Z,78
2018-05-13T07:15:55.068Z,78
2018-05-13T07:21:24.387Z,78
2018-05-13T07:26:53.772Z,78
2018-05-13T07:32:23.100Z,78
2018-05-13T07:37:53.531Z,78
2018-05-13T07:43:23.898Z,78
2018-05-13T07:48:54.225Z,78
2018-05-13T07:54:23.624Z,78
2018-05-13T07:59:54.321Z,78
2018-05-13T08:05:24.355Z,78
2018-05-13T08:10:55.715Z,78
2018-05-13T08:16:23.172Z,78
2018-05-13T08:21:52.644Z,78
2018-05-13T08:27:22.337Z,78
2018-05-13T08:32:51.515Z,78
2018-05-13T08:38:20.870Z,77
2018-05-13T08:43:51.252Z,77
2018-05-13T08:49:20.694Z,77
2018-05-13T08:54:50.236Z,77
2018-05-13T09:00:19.522Z,77
2018-05-13T09:05:48.914Z,76
2018-05-13T09:11:19.397Z,76
2018-05-13T09:16:48.787Z,76
2018-05-13T09:22:18.173Z,76
2018-05-13T09:27:47.605Z,76
2018-05-13T09:33:17.127Z,76
2018-05-13T09:38:46.445Z,76
2018-05-13T09:44:16.848Z,76
2018-05-13T09:49:46.399Z,76
2018-05-13T09:55:16.687Z,76
2018-05-13T10:00:46.322Z,76
2018-05-13T10:06:16.867Z,75
2018-05-13T10:11:46.093Z,76
2018-05-13T10:17:16.610Z,76
2018-05-13T10:22:46.079Z,76
2018-05-13T10:28:15.571Z,76
2018-05-13T10:33:45.152Z,76
2018-05-13T10:39:14.641Z,76
2018-05-13T10:44:44.245Z,76
2018-05-13T10:50:14.846Z,76
2018-05-13T10:55:44.454Z,76
2018-05-13T11:06:44.679Z,76
2018-05-13T11:12:14.298Z,76
2018-05-13T11:17:43.995Z,76
2018-05-13T11:23:13.659Z,76
2018-05-13T11:28:44.364Z,76
2018-05-13T11:34:14.082Z,76
2018-05-13T11:39:44.773Z,76
2018-05-13T11:45:15.637Z,76
2018-05-13T11:50:45.069Z,75
2018-05-13T11:56:14.911Z,75
2018-05-13T12:01:44.660Z,75
2018-05-13T12:07:15.278Z,75
2018-05-13T12:12:46.587Z,75
2018-05-13T12:18:15.658Z,75
2018-05-13T12:23:46.438Z,75
2018-05-13T12:29:17.277Z,75
2018-05-13T12:40:18.791Z,75
2018-05-13T12:45:48.701Z,74
2018-05-13T12:51:19.402Z,74
2018-05-13T12:56:50.250Z,74
2018-05-13T13:02:20.252Z,73
2018-05-13T13:07:50.945Z,73
2018-05-13T13:13:21.792Z,73
2018-05-13T13:18:52.680Z,72
2018-05-13T13:24:23.640Z,72
2018-05-13T13:29:54.425Z,72
2018-05-13T13:35:25.362Z,71
2018-05-13T13:41:02.677Z,71
2018-05-13T13:46:26.171Z,70
2018-05-13T13:51:57.131Z,69
2018-05-13T13:57:27.141Z,69
2018-05-13T14:02:56.962Z,68
2018-05-13T14:08:27.921Z,67
2018-05-13T14:13:59.060Z,67
2018-05-13T14:19:29.871Z,66
2018-05-13T14:25:00.800Z,65
2018-05-13T14:30:31.810Z,65
2018-05-13T14:36:01.832Z,64
2018-05-13T14:41:31.769Z,64
2018-05-13T14:47:02.695Z,63
2018-05-13T14:52:32.670Z,62
2018-05-13T14:58:02.645Z,62
2018-05-13T15:03:33.266Z,61
2018-05-13T15:09:03.525Z,61
2018-05-13T15:14:34.736Z,60
2018-05-13T15:20:04.525Z,60
2018-05-13T15:25:35.479Z,59
2018-05-13T15:31:06.400Z,59
2018-05-13T15:36:37.487Z,59
2018-05-13T15:42:07.367Z,59
2018-05-13T15:47:37.379Z,59
2018-05-13T15:53:08.435Z,58
2018-05-13T15:58:38.234Z,58
2018-05-13T16:04:09.273Z,58
2018-05-13T16:09:39.277Z,58
2018-05-13T16:15:09.220Z,58
2018-05-13T16:20:39.212Z,57
2018-05-13T16:26:09.964Z,57
2018-05-13T16:31:40.943Z,57
2018-05-13T16:37:11.865Z,57
2018-05-13T16:42:41.822Z,57
2018-05-13T16:48:11.695Z,57
2018-05-13T16:53:41.639Z,57
2018-05-13T16:59:12.521Z,56
2018-05-13T17:04:43.459Z,57
2018-05-13T17:10:13.524Z,57
2018-05-13T17:15:43.277Z,57
2018-05-13T17:21:13.068Z,57
2018-05-13T17:26:43.938Z,57
2018-05-13T17:32:13.762Z,57
2018-05-13T17:37:44.716Z,57
2018-05-13T17:43:15.292Z,57
2018-05-13T17:48:46.057Z,57
2018-05-13T17:54:15.815Z,57
2018-05-13T17:59:45.574Z,57
2018-05-13T18:05:15.323Z,56
2018-05-13T18:10:44.973Z,56
2018-05-13T18:16:14.765Z,56
2018-05-13T18:21:44.452Z,56
2018-05-13T18:27:15.189Z,56
2018-05-13T18:32:44.897Z,56
2018-05-13T18:38:14.770Z,56
2018-05-13T18:43:45.182Z,56
2018-05-13T18:49:15.802Z,56
2018-05-13T18:54:45.424Z,55
2018-05-13T19:00:16.041Z,55
2018-05-13T19:05:45.658Z,55
2018-05-13T19:11:15.244Z,55
2018-05-13T19:16:45.829Z,55
2018-05-13T19:22:15.419Z,55
2018-05-13T19:27:44.897Z,55
2018-05-13T19:33:15.411Z,55
2018-05-13T19:38:44.910Z,55
2018-05-13T19:44:14.562Z,55
2018-05-13T19:49:44.095Z,55
2018-05-13T19:55:14.441Z,55
2018-05-13T20:00:43.824Z,56
2018-05-13T20:06:13.253Z,56
2018-05-13T20:11:43.726Z,56
2018-05-13T20:17:13.063Z,56
2018-05-13T20:22:42.575Z,56
2018-05-13T20:28:11.962Z,56
2018-05-13T20:33:42.473Z,56
2018-05-13T20:39:11.690Z,56
2018-05-13T20:44:41.211Z,56
2018-05-13T20:50:10.487Z,56
2018-05-13T20:55:39.894Z,56
2018-05-13T21:01:09.198Z,56
2018-05-13T21:06:39.598Z,57
2018-05-13T21:12:08.895Z,57
2018-05-13T21:17:39.226Z,57
2018-05-13T21:23:09.551Z,57
2018-05-13T21:28:39.835Z,57
2018-05-13T21:34:10.243Z,57
2018-05-13T21:39:40.539Z,57
2018-05-13T21:45:10.806Z,57
2018-05-13T21:50:41.108Z,58
2018-05-13T21:56:10.327Z,58
2018-05-13T22:01:40.793Z,58
2018-05-13T22:07:10.890Z,58
2018-05-13T22:12:41.180Z,58
2018-05-13T22:18:10.400Z,58
2018-05-13T22:23:39.546Z,58
2018-05-13T22:29:08.773Z,59
2018-05-13T22:34:38.975Z,59
2018-05-13T22:40:08.519Z,59
2018-05-13T22:45:37.437Z,59
2018-05-13T22:51:07.631Z,59
2018-05-13T22:56:36.982Z,59
2018-05-13T23:02:06.013Z,60
2018-05-13T23:07:36.140Z,60
2018-05-13T23:13:05.339Z,60
2018-05-13T23:18:34.484Z,60
2018-05-13T23:24:04.676Z,60
2018-05-13T23:29:33.830Z,60
2018-05-13T23:35:03.001Z,60
2018-05-13T23:46:02.420Z,61
2018-05-13T23:51:32.556Z,61
2018-05-13T23:57:02.644Z,61
